Date,TemperatureHighF,TemperatureAvgF,TemperatureLowF,DewpointHighF,DewpointAvgF,DewpointLowF,HumidityHigh,HumidityAvg,HumidityLow,PressureMaxIn,PressureMinIn,WindSpeedMaxMPH,WindSpeedAvgMPH,GustSpeedMaxMPH,PrecipitationSumIn
2014-2-1,68.5,48.9,35.8,47.5,39.4,33.3,99,74,34,30.00,29.90,7,1,0,0.00
2014-2-2,51.1,46.9,44.1,47.6,44.1,42.2,95,90,84,29.89,29.67,8,2,0,0.38
2014-2-3,63.5,49.1,39.4,47.6,41.3,37.0,99,76,47,29.91,29.82,8,2,0,0.00
2014-2-4,63.9,47.5,37.0,43.5,40.1,35.4,99,78,46,30.00,29.91,6,1,0,0.00
2014-2-5,61.0,47.9,36.0,46.7,41.4,34.2,99,80,48,30.04,29.89,7,2,0,0.13
2014-2-6,55.2,49.6,46.2,51.5,48.5,45.9,99,96,85,29.88,29.73,6,1,0,0.98
2014-2-7,54.7,52.4,49.8,53.1,51.1,49.5,99,95,90,29.92,29.82,9,2,0,0.50
2014-2-8,59.4,56.2,52.5,58.3,55.6,52.2,99,98,95,29.98,29.87,10,4,0,1.27
2014-2-9,60.1,57.6,55.0,58.8,57.2,54.7,99,99,95,29.99,29.89,9,3,0,1.64
2014-2-10,64.4,54.8,50.7,55.9,53.0,50.4,99,94,74,30.11,29.94,6,2,0,0.08
2014-2-11,67.8,52.5,45.7,53.2,49.6,45.4,99,91,58,30.09,30.00,7,1,0,0.00
2014-2-12,69.4,53.9,46.0,53.3,50.0,45.7,99,88,56,30.12,30.01,5,1,0,0.00
2014-2-13,77.5,59.2,51.1,59.1,54.5,50.8,99,87,53,30.06,29.92,4,1,0,0.00
2014-2-14,71.2,58.6,52.9,57.5,54.2,51.2,99,87,60,29.99,29.88,7,2,0,0.00
2014-2-15,61.0,55.5,49.3,55.3,52.8,48.5,99,91,79,29.87,29.81,5,2,0,0.01
2014-2-16,72.1,56.6,44.1,56.0,46.2,38.5,99,73,34,30.04,29.86,7,1,0,0.03
2014-2-17,69.4,53.1,41.5,51.4,44.9,40.8,99,78,38,30.01,29.93,8,1,0,0.00
2014-2-18,67.5,53.6,42.8,53.8,48.8,42.0,99,85,59,30.03,29.92,6,1,0,0.00
2014-2-19,71.8,57.8,45.9,54.2,47.9,42.4,97,73,39,30.04,29.93,8,2,0,0.00
2014-2-20,79.0,55.9,42.1,50.4,42.6,39.4,98,67,26,30.05,29.94,4,1,0,0.00
2014-2-21,80.1,56.6,42.1,55.5,46.4,41.0,99,74,29,29.95,29.81,7,2,0,0.00
2014-2-22,78.1,55.2,43.0,56.3,48.5,42.2,99,81,41,29.85,29.75,9,2,0,0.00
2014-2-23,76.3,54.5,45.3,53.2,48.3,43.7,97,82,43,29.86,29.78,7,2,0,0.00
2014-2-24,83.5,56.9,40.8,55.2,47.5,40.0,99,76,31,29.83,29.73,9,2,0,0.00
2014-2-25,69.1,54.8,45.5,52.5,49.1,44.4,99,83,54,29.81,29.73,9,2,0,0.00
2014-2-26,57.6,55.9,53.2,56.5,53.1,48.8,99,91,77,29.78,29.49,12,3,0,1.05
2014-2-27,70.9,59.5,53.8,54.4,51.7,48.5,95,77,52,29.72,29.33,12,3,0,0.01
2014-2-28,64.9,56.5,53.6,56.0,52.6,50.0,99,87,64,29.32,29.19,8,3,0,1.13